Terminal Aerodrome Forecast
Issued by NWS

Home | Current Version | Previous Version | Text Only | Print | Product List | Glossary On
Versions: 1 2 3 4 5 6 7 8 9 10 11 12 13 14 15 16
000
FTUS46 KSEW 290500
TAFHQM
TAF
KHQM 290536Z 2906/3006 25005KT 5SM BR BKN002 OVC015
      TEMPO 2906/2910 2SM BR OVC002
     FM291000 21003KT 1SM BR OVC002
     FM291700 24008KT P6SM VCSH BKN010 OVC020=

USA.gov is the U.S. government's official web portal to all federal, state and local government web resources and services.